createdAt,value
2018-08-22T00:00:20.298Z,20.96
2018-08-22T00:01:20.301Z,20.95
2018-08-22T00:02:20.305Z,20.90
2018-08-22T00:03:20.313Z,20.87
2018-08-22T00:04:20.311Z,20.91
2018-08-22T00:05:20.316Z,20.89
2018-08-22T00:06:20.322Z,20.83
2018-08-22T00:07:20.331Z,20.91
2018-08-22T00:08:20.339Z,20.79
2018-08-22T00:09:20.334Z,20.80
2018-08-22T00:10:20.345Z,20.76
2018-08-22T00:11:20.341Z,20.81
2018-08-22T00:12:20.352Z,20.81
2018-08-22T00:13:20.359Z,20.76
2018-08-22T00:14:20.357Z,20.74
2018-08-22T00:15:20.406Z,20.71
2018-08-22T00:16:20.366Z,20.68
2018-08-22T00:17:20.378Z,20.71
2018-08-22T00:18:20.381Z,20.69
2018-08-22T00:19:20.397Z,20.69
2018-08-22T00:20:20.395Z,20.71
2018-08-22T00:21:20.390Z,20.71
2018-08-22T00:22:20.435Z,20.74
2018-08-22T00:23:20.400Z,20.68
2018-08-22T00:24:20.401Z,20.65
2018-08-22T00:25:20.463Z,20.69
2018-08-22T00:26:20.412Z,20.61
2018-08-22T00:27:20.412Z,20.66
2018-08-22T00:28:20.423Z,20.65
2018-08-22T00:29:20.525Z,20.62
2018-08-22T00:30:20.431Z,20.61
2018-08-22T00:31:20.437Z,20.61
2018-08-22T00:32:21.937Z,20.47
2018-08-22T00:33:21.920Z,20.54
2018-08-22T00:34:21.889Z,20.53
2018-08-22T00:35:20.453Z,20.53
2018-08-22T00:36:20.455Z,20.53
2018-08-22T00:37:20.464Z,20.46
2018-08-22T00:38:20.462Z,20.53
2018-08-22T00:39:20.475Z,20.51
2018-08-22T00:40:20.474Z,20.54
2018-08-22T00:41:20.474Z,20.56
2018-08-22T00:42:20.485Z,20.53
2018-08-22T00:43:20.483Z,20.51
2018-08-22T00:44:20.494Z,20.51
2018-08-22T00:45:20.502Z,20.50
2018-08-22T00:46:20.495Z,20.50
2018-08-22T00:47:20.510Z,20.46
2018-08-22T00:48:20.504Z,20.41
2018-08-22T00:49:20.511Z,20.39
2018-08-22T00:50:20.515Z,20.47
2018-08-22T00:51:20.521Z,20.43
2018-08-22T00:52:20.530Z,20.39
2018-08-22T00:53:20.529Z,20.39
2018-08-22T00:54:20.532Z,20.35
2018-08-22T00:55:20.541Z,20.21
2018-08-22T00:56:20.541Z,20.24
2018-08-22T00:57:20.548Z,20.23
2018-08-22T00:58:20.553Z,20.25
2018-08-22T00:59:20.562Z,20.24
2018-08-22T01:00:20.593Z,20.24
2018-08-22T01:01:20.563Z,20.23
2018-08-22T01:02:20.573Z,20.27
2018-08-22T01:03:20.572Z,20.15
2018-08-22T01:04:20.618Z,20.16
2018-08-22T01:05:20.583Z,20.20
2018-08-22T01:06:20.587Z,20.20
2018-08-22T01:07:20.593Z,20.21
2018-08-22T01:08:20.593Z,20.20
2018-08-22T01:09:20.596Z,20.24
2018-08-22T01:10:20.604Z,20.21
2018-08-22T01:11:20.605Z,20.20
2018-08-22T01:12:20.608Z,20.24
2018-08-22T01:13:20.618Z,20.24
2018-08-22T01:14:20.620Z,20.23
2018-08-22T01:15:20.625Z,20.23
2018-08-22T01:16:20.632Z,20.21
2018-08-22T01:17:20.629Z,20.24
2018-08-22T01:18:20.638Z,20.21
2018-08-22T01:19:20.639Z,20.27
2018-08-22T01:20:20.644Z,20.18
2018-08-22T01:21:20.659Z,20.33
2018-08-22T01:22:20.656Z,20.28
2018-08-22T01:23:20.656Z,20.33
2018-08-22T01:24:20.666Z,20.35
2018-08-22T01:25:20.660Z,20.39
2018-08-22T01:26:20.668Z,20.38
2018-08-22T01:27:20.675Z,20.46
2018-08-22T01:28:20.684Z,20.41
2018-08-22T01:29:20.680Z,20.42
2018-08-22T01:30:20.688Z,20.43
2018-08-22T01:31:20.691Z,20.42
2018-08-22T01:32:20.694Z,20.47
2018-08-22T01:33:20.704Z,20.34
2018-08-22T01:34:20.709Z,20.42
2018-08-22T01:35:20.705Z,20.50
2018-08-22T01:36:20.718Z,20.49
2018-08-22T01:37:20.739Z,20.51
2018-08-22T01:38:20.726Z,20.50
2018-08-22T01:39:20.729Z,20.50
2018-08-22T01:40:20.739Z,20.51
2018-08-22T01:41:20.743Z,20.51
2018-08-22T01:42:20.741Z,20.49
2018-08-22T01:43:20.742Z,20.49
2018-08-22T01:44:20.747Z,20.43
2018-08-22T01:45:20.758Z,20.39
2018-08-22T01:46:20.756Z,20.42
2018-08-22T01:47:20.763Z,20.43
2018-08-22T01:48:20.773Z,20.42
2018-08-22T01:49:20.769Z,20.43
2018-08-22T01:50:20.774Z,20.42
2018-08-22T01:51:20.785Z,20.41
2018-08-22T01:52:20.782Z,20.43
2018-08-22T01:53:20.793Z,20.42
2018-08-22T01:54:20.798Z,20.39
2018-08-22T01:55:20.798Z,20.41
2018-08-22T01:56:20.800Z,20.38
2018-08-22T01:57:20.803Z,20.38
2018-08-22T01:58:20.808Z,20.43
2018-08-22T01:59:20.816Z,20.34
2018-08-22T02:00:20.824Z,20.39
2018-08-22T02:01:20.822Z,20.35
2018-08-22T02:02:20.831Z,20.39
2018-08-22T02:03:20.830Z,20.28
2018-08-22T02:04:20.838Z,20.31
2018-08-22T02:05:20.846Z,20.34
2018-08-22T02:06:20.849Z,20.41
2018-08-22T02:07:20.851Z,20.28
2018-08-22T02:08:20.860Z,20.30
2018-08-22T02:09:20.856Z,20.31
2018-08-22T02:10:20.864Z,20.33
2018-08-22T02:11:20.870Z,20.31
2018-08-22T02:12:20.874Z,20.33
2018-08-22T02:13:20.882Z,20.30
2018-08-22T02:14:20.882Z,20.33
2018-08-22T02:15:20.890Z,20.35
2018-08-22T02:16:20.890Z,20.31
2018-08-22T02:17:20.907Z,20.35
2018-08-22T02:18:20.898Z,20.34
2018-08-22T02:19:20.904Z,20.33
2018-08-22T02:20:20.919Z,20.33
2018-08-22T02:21:20.908Z,20.27
2018-08-22T02:22:20.922Z,20.24
2018-08-22T02:23:20.918Z,20.33
2018-08-22T02:24:20.930Z,20.33
2018-08-22T02:25:20.937Z,20.31
2018-08-22T02:26:20.936Z,20.30
2018-08-22T02:27:20.943Z,20.30
2018-08-22T02:28:20.941Z,20.25
2018-08-22T02:29:20.948Z,20.33
2018-08-22T02:30:20.955Z,20.34
2018-08-22T02:31:20.955Z,20.30
2018-08-22T02:32:20.964Z,20.41
2018-08-22T02:33:20.962Z,20.35
2018-08-22T02:34:20.969Z,20.34
2018-08-22T02:35:20.977Z,20.33
2018-08-22T02:36:20.983Z,20.41
2018-08-22T02:37:20.991Z,20.34
2018-08-22T02:38:20.984Z,20.31
2018-08-22T02:39:20.994Z,20.27
2018-08-22T02:40:20.996Z,20.33
2018-08-22T02:41:20.996Z,20.33
2018-08-22T02:42:21.005Z,20.33
2018-08-22T02:43:21.014Z,20.33
2018-08-22T02:44:21.014Z,20.42
2018-08-22T02:45:21.015Z,20.38
2018-08-22T02:46:21.020Z,20.31
2018-08-22T02:47:21.030Z,20.31
2018-08-22T02:48:21.028Z,20.27
2018-08-22T02:49:21.037Z,20.23
2018-08-22T02:50:21.044Z,20.20
2018-08-22T02:51:21.041Z,20.21
2018-08-22T02:52:21.051Z,20.27
2018-08-22T02:53:21.048Z,20.24
2018-08-22T02:54:21.056Z,20.16
2018-08-22T02:55:21.065Z,20.21
2018-08-22T02:56:21.071Z,20.20
2018-08-22T02:57:21.083Z,20.10
2018-08-22T02:58:21.077Z,20.20
2018-08-22T02:59:21.078Z,20.06
2018-08-22T03:00:21.079Z,20.15
2018-08-22T03:01:21.091Z,20.20
2018-08-22T03:02:21.087Z,20.16
2018-08-22T03:03:21.099Z,20.18
2018-08-22T03:04:21.105Z,20.12
2018-08-22T03:05:21.104Z,20.16
2018-08-22T03:06:21.110Z,20.15
2018-08-22T03:07:21.109Z,20.16
2018-08-22T03:08:21.117Z,20.16
2018-08-22T03:09:21.117Z,20.20
2018-08-22T03:10:21.126Z,20.15
2018-08-22T03:11:21.122Z,20.06
2018-08-22T03:12:21.136Z,20.16
2018-08-22T03:13:21.135Z,20.20
2018-08-22T03:14:21.139Z,20.13
2018-08-22T03:15:21.142Z,20.16
2018-08-22T03:16:21.155Z,20.15
2018-08-22T03:17:21.157Z,20.18
2018-08-22T03:18:21.163Z,20.10
2018-08-22T03:19:21.168Z,20.10
2018-08-22T03:20:21.167Z,20.06
2018-08-22T03:21:21.166Z,20.09
2018-08-22T03:22:21.180Z,20.06
2018-08-22T03:23:21.174Z,20.09
2018-08-22T03:24:21.182Z,20.09
2018-08-22T03:25:21.189Z,20.16
2018-08-22T03:26:21.197Z,20.16
2018-08-22T03:27:21.203Z,20.13
2018-08-22T03:28:21.214Z,20.12
2018-08-22T03:29:21.205Z,20.21
2018-08-22T03:30:21.209Z,20.15
2018-08-22T03:31:21.209Z,20.08
2018-08-22T03:32:21.215Z,20.20
2018-08-22T03:33:21.221Z,20.15
2018-08-22T03:34:21.222Z,20.15
2018-08-22T03:35:21.229Z,20.15
2018-08-22T03:36:21.237Z,20.15
2018-08-22T03:37:21.234Z,20.12
2018-08-22T03:38:21.242Z,20.09
2018-08-22T03:39:21.244Z,20.05
2018-08-22T03:40:21.246Z,20.09
2018-08-22T03:41:21.257Z,20.20
2018-08-22T03:42:21.257Z,20.10
2018-08-22T03:43:21.267Z,20.09
2018-08-22T03:44:21.265Z,20.06
2018-08-22T03:45:21.268Z,20.06
2018-08-22T03:46:21.275Z,20.09
2018-08-22T03:47:21.282Z,19.97
2018-08-22T03:48:21.283Z,19.97
2018-08-22T03:49:21.287Z,20.06
2018-08-22T03:50:21.291Z,20.00
2018-08-22T03:51:21.293Z,19.97
2018-08-22T03:52:21.300Z,20.00
2018-08-22T03:53:21.301Z,20.09
2018-08-22T03:54:21.306Z,20.10
2018-08-22T03:55:21.311Z,20.13
2018-08-22T03:56:21.317Z,20.09
2018-08-22T03:57:21.319Z,20.16
2018-08-22T03:58:21.327Z,20.21
2018-08-22T03:59:21.328Z,20.12
2018-08-22T04:00:21.332Z,20.20
2018-08-22T04:01:21.340Z,20.18
2018-08-22T04:02:21.347Z,20.18
2018-08-22T04:03:21.342Z,20.08
2018-08-22T04:04:21.349Z,20.16
2018-08-22T04:05:21.350Z,20.10
2018-08-22T04:06:21.352Z,20.12
2018-08-22T04:07:21.365Z,20.15
2018-08-22T04:08:21.368Z,20.15
2018-08-22T04:09:21.379Z,20.13
2018-08-22T04:10:21.382Z,20.15
2018-08-22T04:11:21.375Z,20.15
2018-08-22T04:12:22.197Z,20.16
2018-08-22T04:13:21.386Z,20.16
2018-08-22T04:14:21.391Z,20.18
2018-08-22T04:15:21.395Z,20.16
2018-08-22T04:16:21.399Z,20.18
2018-08-22T04:17:21.403Z,20.25
2018-08-22T04:18:21.409Z,20.27
2018-08-22T04:19:21.408Z,20.24
2018-08-22T04:20:21.416Z,20.25
2018-08-22T04:21:21.420Z,20.28
2018-08-22T04:22:21.427Z,20.25
2018-08-22T04:23:21.425Z,20.16
2018-08-22T04:24:21.430Z,20.21
2018-08-22T04:25:21.436Z,20.23
2018-08-22T04:26:21.436Z,20.16
2018-08-22T04:27:21.447Z,20.21
2018-08-22T04:28:21.451Z,20.21
2018-08-22T04:29:21.453Z,20.15
2018-08-22T04:30:21.457Z,20.13
2018-08-22T04:31:21.465Z,20.16
2018-08-22T04:32:21.464Z,20.16
2018-08-22T04:33:21.472Z,20.13
2018-08-22T04:34:21.470Z,20.12
2018-08-22T04:35:21.475Z,20.16
2018-08-22T04:36:21.483Z,20.13
2018-08-22T04:37:21.531Z,20.10
2018-08-22T04:38:21.489Z,20.18
2018-08-22T04:39:21.500Z,20.13
2018-08-22T04:40:21.498Z,20.06
2018-08-22T04:41:21.509Z,20.16
2018-08-22T04:42:21.516Z,20.15
2018-08-22T04:43:21.522Z,20.13
2018-08-22T04:44:21.520Z,20.23
2018-08-22T04:45:21.521Z,20.09
2018-08-22T04:46:21.597Z,20.20
2018-08-22T04:47:21.542Z,20.21
2018-08-22T04:48:21.534Z,20.16
2018-08-22T04:49:21.542Z,20.15
2018-08-22T04:50:21.543Z,20.23
2018-08-22T04:51:21.548Z,20.28
2018-08-22T04:52:21.553Z,20.28
2018-08-22T04:53:21.560Z,20.28
2018-08-22T04:54:21.562Z,20.30
2018-08-22T04:55:21.581Z,20.27
2018-08-22T04:56:21.564Z,20.33
2018-08-22T04:57:21.573Z,20.25
2018-08-22T04:58:21.572Z,20.28
2018-08-22T04:59:21.581Z,20.35
2018-08-22T05:00:21.586Z,20.38
2018-08-22T05:01:21.584Z,20.39
2018-08-22T05:02:21.587Z,20.43
2018-08-22T05:03:21.596Z,20.41
2018-08-22T05:04:21.598Z,20.42
2018-08-22T05:05:21.605Z,20.39
2018-08-22T05:06:21.609Z,20.43
2018-08-22T05:07:21.611Z,20.38
2018-08-22T05:08:21.617Z,20.46
2018-08-22T05:09:21.622Z,20.50
2018-08-22T05:10:21.620Z,20.53
2018-08-22T05:11:21.633Z,20.53
2018-08-22T05:12:21.631Z,20.56
2018-08-22T05:13:21.643Z,20.47
2018-08-22T05:14:21.648Z,20.64
2018-08-22T05:15:21.644Z,20.54
2018-08-22T05:16:21.703Z,20.65
2018-08-22T05:17:21.652Z,20.58
2018-08-22T05:18:21.658Z,20.66
2018-08-22T05:19:21.670Z,20.65
2018-08-22T05:20:21.673Z,20.59
2018-08-22T05:21:21.673Z,20.71
2018-08-22T05:22:21.681Z,20.72
2018-08-22T05:23:21.679Z,20.77
2018-08-22T05:24:21.694Z,20.80
2018-08-22T05:25:21.693Z,20.84
2018-08-22T05:26:21.718Z,20.91
2018-08-22T05:27:21.701Z,20.89
2018-08-22T05:28:21.708Z,21.02
2018-08-22T05:29:21.709Z,21.06
2018-08-22T05:30:21.716Z,21.06
2018-08-22T05:31:21.720Z,21.09
2018-08-22T05:32:21.722Z,21.20
2018-08-22T05:33:21.736Z,21.19
2018-08-22T05:34:21.736Z,21.24
2018-08-22T05:35:21.764Z,21.24
2018-08-22T05:36:21.741Z,21.27
2018-08-22T05:37:21.743Z,21.24
2018-08-22T05:38:21.748Z,21.32
2018-08-22T05:39:21.754Z,21.35
2018-08-22T05:40:21.763Z,21.39
2018-08-22T05:41:21.765Z,21.32
2018-08-22T05:42:21.771Z,21.41
2018-08-22T05:43:21.775Z,21.42
2018-08-22T05:44:21.775Z,21.50
2018-08-22T05:45:21.788Z,21.53
2018-08-22T05:46:21.827Z,21.61
2018-08-22T05:47:21.795Z,21.67
2018-08-22T05:48:21.804Z,21.76
2018-08-22T05:49:21.801Z,21.71
2018-08-22T05:50:21.808Z,21.69
2018-08-22T05:51:21.839Z,21.79
2018-08-22T05:52:21.824Z,21.79
2018-08-22T05:53:21.829Z,21.67
2018-08-22T05:54:21.833Z,21.72
2018-08-22T05:55:21.836Z,21.88
2018-08-22T05:56:21.838Z,21.88
2018-08-22T05:57:21.846Z,21.98
2018-08-22T05:58:21.853Z,22.07
2018-08-22T05:59:21.860Z,22.02
2018-08-22T06:00:21.866Z,22.25
2018-08-22T06:01:21.863Z,22.37
2018-08-22T06:02:21.872Z,22.52
2018-08-22T06:03:21.937Z,22.39
2018-08-22T06:04:21.877Z,22.49
2018-08-22T06:05:21.891Z,22.59
2018-08-22T06:06:21.896Z,22.68
2018-08-22T06:07:21.895Z,22.74
2018-08-22T06:08:21.914Z,22.77
2018-08-22T06:09:21.913Z,22.82
2018-08-22T06:10:21.914Z,22.77
2018-08-22T06:11:21.937Z,22.96
2018-08-22T06:12:21.925Z,23.50
2018-08-22T06:13:21.936Z,24.24
2018-08-22T06:14:21.935Z,24.71
2018-08-22T06:15:21.948Z,25.19
2018-08-22T06:16:21.953Z,25.65
2018-08-22T06:17:21.967Z,26.15
2018-08-22T06:18:21.967Z,26.64
2018-08-22T06:19:21.969Z,26.83
2018-08-22T06:20:22.018Z,27.13
2018-08-22T06:21:21.990Z,27.48
2018-08-22T06:22:21.995Z,27.66
2018-08-22T06:23:22.004Z,27.79
2018-08-22T06:24:22.011Z,27.61
2018-08-22T06:25:22.015Z,27.39
2018-08-22T06:26:22.028Z,27.57
2018-08-22T06:27:22.035Z,27.66
2018-08-22T06:28:22.048Z,27.67
2018-08-22T06:29:22.052Z,27.86
2018-08-22T06:30:22.064Z,27.99
2018-08-22T06:31:22.063Z,28.13
2018-08-22T06:32:22.082Z,28.38
2018-08-22T06:33:22.085Z,28.78
2018-08-22T06:34:22.119Z,28.84
2018-08-22T06:35:22.115Z,28.75
2018-08-22T06:36:22.196Z,28.95
2018-08-22T06:37:22.130Z,29.11
2018-08-22T06:38:22.134Z,29.55
2018-08-22T06:39:22.147Z,29.70
2018-08-22T06:40:22.162Z,29.79
2018-08-22T06:41:22.182Z,29.78
2018-08-22T06:42:22.181Z,30.05
2018-08-22T06:43:22.193Z,30.21
2018-08-22T06:44:22.263Z,30.45
2018-08-22T06:45:22.220Z,30.67
2018-08-22T06:46:22.224Z,30.65
2018-08-22T06:47:22.246Z,30.53
2018-08-22T06:48:22.246Z,29.99
2018-08-22T06:49:22.264Z,29.94
2018-08-22T06:50:22.289Z,29.60
2018-08-22T06:51:22.282Z,29.78
2018-08-22T06:52:22.317Z,29.78
2018-08-22T06:53:22.306Z,29.89
2018-08-22T06:54:22.323Z,29.87
2018-08-22T06:55:22.330Z,30.07
2018-08-22T06:56:22.340Z,30.49
2018-08-22T06:57:22.354Z,30.02
2018-08-22T06:58:22.367Z,29.70
2018-08-22T06:59:22.380Z,29.03
2018-08-22T07:00:22.398Z,28.77
2018-08-22T07:01:22.405Z,28.33
2018-08-22T07:02:22.442Z,27.99
2018-08-22T07:03:22.433Z,27.85
2018-08-22T07:04:22.448Z,27.42
2018-08-22T07:05:22.452Z,27.28
2018-08-22T07:06:22.470Z,27.16
2018-08-22T07:07:22.479Z,27.16
2018-08-22T07:08:22.491Z,26.98
2018-08-22T07:09:22.506Z,26.81
2018-08-22T07:10:22.519Z,26.72
2018-08-22T07:11:22.525Z,26.58
2018-08-22T07:12:22.538Z,26.61
2018-08-22T07:13:22.549Z,26.62
2018-08-22T07:14:22.556Z,26.58
2018-08-22T07:15:22.569Z,26.57
2018-08-22T07:16:22.577Z,26.37
2018-08-22T07:17:22.593Z,26.27
2018-08-22T07:18:22.607Z,26.20
2018-08-22T07:19:22.612Z,26.15
2018-08-22T07:20:22.627Z,26.01
2018-08-22T07:21:22.631Z,25.86
2018-08-22T07:22:22.643Z,25.71
2018-08-22T07:23:22.656Z,25.61
2018-08-22T07:24:22.663Z,25.39
2018-08-22T07:25:22.676Z,25.37
2018-08-22T07:26:22.682Z,25.25
2018-08-22T07:27:22.693Z,25.32
2018-08-22T07:28:22.705Z,25.39
2018-08-22T07:29:22.711Z,25.52
2018-08-22T07:30:22.722Z,26.29
2018-08-22T07:31:22.734Z,27.48
2018-08-22T07:32:22.747Z,28.16
2018-08-22T07:33:22.753Z,29.03
2018-08-22T07:34:22.760Z,29.84
2018-08-22T07:35:22.806Z,30.62
2018-08-22T07:36:22.782Z,31.26
2018-08-22T07:37:22.794Z,31.82
2018-08-22T07:38:22.802Z,32.18
2018-08-22T07:39:22.810Z,32.43
2018-08-22T07:40:22.825Z,32.70
2018-08-22T07:41:22.832Z,32.54
2018-08-22T07:42:22.846Z,32.47
2018-08-22T07:43:22.858Z,32.71
2018-08-22T07:44:22.877Z,32.92
2018-08-22T07:45:22.886Z,33.30
2018-08-22T07:46:22.902Z,33.83
2018-08-22T07:47:22.914Z,34.22
2018-08-22T07:48:22.927Z,34.74
2018-08-22T07:49:22.945Z,35.29
2018-08-22T07:50:23.041Z,35.54
2018-08-22T07:51:22.976Z,35.62
2018-08-22T07:52:22.984Z,35.64
2018-08-22T07:53:23.014Z,35.45
2018-08-22T07:54:23.785Z,35.64
2018-08-22T07:55:23.026Z,35.69
2018-08-22T07:56:23.043Z,35.72
2018-08-22T07:57:23.059Z,35.88
2018-08-22T07:58:23.076Z,35.76
2018-08-22T07:59:23.089Z,35.93
2018-08-22T08:00:23.105Z,35.74
2018-08-22T08:01:23.120Z,35.73
2018-08-22T08:02:23.145Z,35.36
2018-08-22T08:03:23.152Z,35.29
2018-08-22T08:04:23.177Z,35.44
2018-08-22T08:05:23.244Z,35.42
2018-08-22T08:06:23.211Z,35.72
2018-08-22T08:07:23.222Z,36.01
2018-08-22T08:08:23.245Z,36.23
2018-08-22T08:09:23.258Z,36.33
2018-08-22T08:10:23.272Z,36.51
2018-08-22T08:11:23.297Z,36.97
2018-08-22T08:12:23.312Z,37.04
2018-08-22T08:13:23.326Z,36.98
2018-08-22T08:14:23.355Z,36.86
2018-08-22T08:15:23.376Z,36.85
2018-08-22T08:16:23.380Z,37.05
2018-08-22T08:17:23.400Z,37.24
2018-08-22T08:18:23.418Z,37.05
2018-08-22T08:19:23.440Z,36.94
2018-08-22T08:20:23.456Z,36.90
2018-08-22T08:21:23.477Z,36.98
2018-08-22T08:22:23.489Z,36.67
2018-08-22T08:23:23.514Z,36.92
2018-08-22T08:24:23.530Z,37.26
2018-08-22T08:25:23.544Z,37.23
2018-08-22T08:26:23.592Z,37.29
2018-08-22T08:27:23.580Z,37.32
2018-08-22T08:28:23.601Z,37.29
2018-08-22T08:29:23.624Z,37.05
2018-08-22T08:30:23.643Z,36.75
2018-08-22T08:31:23.663Z,36.76
2018-08-22T08:32:23.680Z,36.80
2018-08-22T08:33:23.701Z,37.13
2018-08-22T08:34:23.718Z,37.36
2018-08-22T08:35:23.733Z,37.64
2018-08-22T08:36:23.763Z,37.86
2018-08-22T08:37:23.773Z,38.04
2018-08-22T08:38:23.802Z,37.96
2018-08-22T08:39:23.818Z,37.85
2018-08-22T08:40:23.839Z,37.61
2018-08-22T08:41:23.862Z,37.59
2018-08-22T08:42:23.924Z,37.42
2018-08-22T08:43:23.942Z,37.26
2018-08-22T08:44:23.911Z,37.56
2018-08-22T08:45:23.951Z,37.89
2018-08-22T08:46:23.953Z,38.04
2018-08-22T08:47:23.972Z,38.18
2018-08-22T08:48:23.998Z,38.17
2018-08-22T08:49:24.081Z,38.20
2018-08-22T08:50:24.036Z,38.12
2018-08-22T08:51:24.055Z,38.15
2018-08-22T08:52:24.075Z,37.96
2018-08-22T08:53:24.094Z,37.80
2018-08-22T08:54:24.117Z,37.93
2018-08-22T08:55:24.139Z,37.86
2018-08-22T08:56:24.158Z,38.03
2018-08-22T08:57:24.230Z,38.41
2018-08-22T08:58:24.196Z,38.41
2018-08-22T08:59:24.220Z,38.68
2018-08-22T09:00:24.239Z,38.30
2018-08-22T09:01:24.289Z,38.36
2018-08-22T09:02:24.283Z,37.31
2018-08-22T09:03:24.307Z,37.07
2018-08-22T09:04:24.404Z,36.83
2018-08-22T09:05:24.342Z,36.65
2018-08-22T09:06:24.393Z,36.61
2018-08-22T09:07:24.388Z,36.77
2018-08-22T09:08:25.309Z,36.80
2018-08-22T09:09:24.422Z,37.17
2018-08-22T09:10:24.451Z,37.50
2018-08-22T09:11:24.468Z,37.81
2018-08-22T09:12:24.590Z,37.73
2018-08-22T09:13:24.504Z,37.86
2018-08-22T09:14:24.528Z,38.05
2018-08-22T09:15:24.560Z,38.29
2018-08-22T09:16:24.569Z,38.39
2018-08-22T09:17:24.630Z,38.58
2018-08-22T09:18:24.617Z,38.39
2018-08-22T09:19:24.651Z,38.48
2018-08-22T09:20:24.661Z,38.49
2018-08-22T09:21:24.730Z,38.53
2018-08-22T09:22:24.697Z,38.45
2018-08-22T09:23:24.738Z,38.67
2018-08-22T09:24:24.749Z,38.71
2018-08-22T09:25:24.767Z,38.64
2018-08-22T09:26:24.785Z,38.14
2018-08-22T09:27:24.808Z,38.10
2018-08-22T09:28:24.837Z,37.33
2018-08-22T09:29:24.860Z,37.20
2018-08-22T09:30:24.875Z,37.02
2018-08-22T09:31:24.892Z,36.94
2018-08-22T09:32:24.912Z,36.99
2018-08-22T09:33:24.935Z,37.17
2018-08-22T09:34:25.006Z,37.46
2018-08-22T09:35:25.005Z,37.67
2018-08-22T09:36:25.013Z,37.80
2018-08-22T09:37:25.018Z,37.81
2018-08-22T09:38:25.045Z,37.83
2018-08-22T09:39:25.115Z,37.99
2018-08-22T09:40:25.116Z,38.05
2018-08-22T09:41:25.106Z,37.93
2018-08-22T09:42:25.129Z,37.90
2018-08-22T09:43:25.153Z,38.18
2018-08-22T09:44:25.192Z,38.20
2018-08-22T09:45:25.189Z,38.18
2018-08-22T09:46:25.224Z,38.20
2018-08-22T09:47:25.241Z,38.22
2018-08-22T09:48:25.252Z,37.83
2018-08-22T09:49:25.279Z,37.55
2018-08-22T09:50:25.308Z,37.21
2018-08-22T09:51:25.319Z,37.12
2018-08-22T09:52:25.344Z,37.17
2018-08-22T09:53:25.357Z,37.12
2018-08-22T09:54:25.400Z,37.35
2018-08-22T09:55:25.403Z,37.36
2018-08-22T09:56:25.427Z,37.61
2018-08-22T09:57:25.450Z,37.67
2018-08-22T09:58:25.469Z,37.67
2018-08-22T09:59:25.489Z,36.98
2018-08-22T10:00:25.512Z,36.72
2018-08-22T10:01:25.531Z,36.72
2018-08-22T10:02:25.551Z,36.73
2018-08-22T10:03:25.577Z,36.79
2018-08-22T10:04:25.594Z,37.13
2018-08-22T10:05:25.615Z,37.05
2018-08-22T10:06:25.678Z,36.87
2018-08-22T10:07:25.718Z,36.95
2018-08-22T10:08:25.681Z,36.95
2018-08-22T10:09:25.697Z,36.92
2018-08-22T10:10:25.729Z,36.94
2018-08-22T10:11:25.738Z,36.87
2018-08-22T10:12:25.767Z,36.94
2018-08-22T10:13:25.782Z,37.02
2018-08-22T10:14:25.806Z,37.17
2018-08-22T10:15:25.824Z,37.24
2018-08-22T10:16:25.849Z,37.35
2018-08-22T10:17:25.941Z,37.50
2018-08-22T10:18:25.886Z,37.54
2018-08-22T10:19:25.917Z,37.56
2018-08-22T10:20:25.927Z,37.47
2018-08-22T10:21:25.953Z,37.35
2018-08-22T10:22:25.975Z,37.28
2018-08-22T10:23:25.988Z,37.24
2018-08-22T10:24:26.010Z,37.05
2018-08-22T10:25:26.034Z,37.09
2018-08-22T10:26:26.096Z,36.82
2018-08-22T10:27:26.078Z,36.64
2018-08-22T10:28:26.097Z,36.31
2018-08-22T10:29:26.122Z,35.93
2018-08-22T10:30:26.139Z,35.77
2018-08-22T10:31:26.160Z,35.76
2018-08-22T10:32:26.174Z,35.60
2018-08-22T10:33:26.203Z,35.63
2018-08-22T10:34:26.219Z,35.74
2018-08-22T10:35:26.241Z,35.84
2018-08-22T10:36:26.263Z,36.12
2018-08-22T10:37:26.277Z,36.12
2018-08-22T10:38:26.330Z,36.20
2018-08-22T10:39:26.358Z,36.31
2018-08-22T10:40:26.336Z,36.41
2018-08-22T10:41:26.363Z,36.31
2018-08-22T10:42:26.376Z,36.35
2018-08-22T10:43:26.395Z,36.38
2018-08-22T10:44:26.476Z,36.61
2018-08-22T10:45:26.437Z,36.72
2018-08-22T10:46:26.460Z,36.79
2018-08-22T10:47:26.472Z,36.73
2018-08-22T10:48:26.513Z,36.41
2018-08-22T10:49:26.515Z,35.99
2018-08-22T10:50:26.544Z,35.57
2018-08-22T10:51:26.557Z,35.66
2018-08-22T10:52:26.574Z,35.42
2018-08-22T10:53:26.591Z,35.54
2018-08-22T10:54:26.615Z,35.82
2018-08-22T10:55:26.645Z,35.88
2018-08-22T10:56:26.651Z,35.99
2018-08-22T10:57:26.669Z,36.17
2018-08-22T10:58:26.682Z,36.06
2018-08-22T10:59:26.710Z,36.07
2018-08-22T11:00:26.729Z,36.35
2018-08-22T11:01:26.746Z,36.41
2018-08-22T11:02:26.766Z,36.39
2018-08-22T11:03:26.785Z,36.35
2018-08-22T11:04:26.804Z,36.29
2018-08-22T11:05:26.823Z,36.38
2018-08-22T11:06:26.842Z,36.39
2018-08-22T11:07:26.856Z,36.42
2018-08-22T11:08:26.885Z,36.61
2018-08-22T11:09:26.891Z,36.36
2018-08-22T11:10:26.911Z,36.31
2018-08-22T11:11:26.935Z,36.36
2018-08-22T11:12:26.952Z,36.42
2018-08-22T11:13:26.973Z,36.45
2018-08-22T11:14:26.992Z,36.54
2018-08-22T11:15:27.003Z,36.52
2018-08-22T11:16:27.032Z,36.56
2018-08-22T11:17:27.040Z,36.58
2018-08-22T11:18:27.065Z,36.56
2018-08-22T11:19:27.079Z,36.61
2018-08-22T11:20:27.102Z,36.85
2018-08-22T11:21:27.112Z,36.73
2018-08-22T11:22:27.220Z,36.77
2018-08-22T11:23:27.157Z,36.64
2018-08-22T11:24:27.169Z,36.39
2018-08-22T11:25:27.194Z,35.88
2018-08-22T11:26:27.853Z,35.64
2018-08-22T11:27:27.226Z,35.57
2018-08-22T11:28:27.251Z,35.74
2018-08-22T11:29:27.266Z,35.84
2018-08-22T11:30:27.287Z,35.79
2018-08-22T11:31:27.301Z,35.79
2018-08-22T11:32:27.324Z,35.55
2018-08-22T11:33:27.336Z,35.26
2018-08-22T11:34:27.378Z,35.11
2018-08-22T11:35:27.375Z,35.07
2018-08-22T11:36:27.393Z,35.01
2018-08-22T11:37:27.416Z,34.92
2018-08-22T11:38:27.428Z,34.56
2018-08-22T11:39:27.448Z,34.26
2018-08-22T11:40:27.469Z,34.34
2018-08-22T11:41:27.477Z,34.48
2018-08-22T11:42:27.503Z,34.64
2018-08-22T11:43:27.513Z,34.57
2018-08-22T11:44:27.529Z,34.60
2018-08-22T11:45:27.552Z,34.77
2018-08-22T11:46:27.575Z,35.02
2018-08-22T11:47:27.590Z,35.02
2018-08-22T11:48:27.598Z,35.17
2018-08-22T11:49:27.614Z,34.88
2018-08-22T11:50:27.638Z,34.88
2018-08-22T11:51:27.647Z,34.88
2018-08-22T11:52:27.666Z,34.80
2018-08-22T11:53:27.684Z,34.83
2018-08-22T11:54:27.700Z,34.77
2018-08-22T11:55:27.721Z,34.88
2018-08-22T11:56:27.739Z,34.92
2018-08-22T11:57:27.745Z,35.03
2018-08-22T11:58:27.767Z,34.99
2018-08-22T11:59:27.783Z,34.94
2018-08-22T12:00:27.798Z,34.89
2018-08-22T12:01:27.807Z,34.96
2018-08-22T12:02:27.830Z,34.91
2018-08-22T12:03:27.845Z,34.81
2018-08-22T12:04:27.861Z,34.60
2018-08-22T12:05:27.876Z,34.29
2018-08-22T12:06:27.898Z,34.20
2018-08-22T12:07:27.912Z,34.11
2018-08-22T12:08:27.921Z,33.98
2018-08-22T12:09:27.943Z,34.07
2018-08-22T12:10:27.961Z,34.23
2018-08-22T12:11:27.968Z,34.20
2018-08-22T12:12:27.990Z,34.24
2018-08-22T12:13:28.004Z,34.23
2018-08-22T12:14:28.016Z,34.22
2018-08-22T12:15:28.030Z,34.23
2018-08-22T12:16:28.042Z,34.26
2018-08-22T12:17:28.063Z,34.26
2018-08-22T12:18:28.074Z,34.24
2018-08-22T12:19:28.090Z,34.26
2018-08-22T12:20:28.102Z,34.29
2018-08-22T12:21:28.120Z,34.23
2018-08-22T12:22:28.137Z,34.13
2018-08-22T12:23:28.220Z,34.07
2018-08-22T12:24:28.166Z,34.02
2018-08-22T12:25:28.172Z,34.05
2018-08-22T12:26:28.187Z,33.97
2018-08-22T12:27:28.208Z,33.98
2018-08-22T12:28:28.216Z,33.97
2018-08-22T12:29:28.236Z,34.00
2018-08-22T12:30:28.246Z,33.98
2018-08-22T12:31:28.260Z,33.94
2018-08-22T12:32:28.281Z,33.82
2018-08-22T12:33:28.289Z,33.90
2018-08-22T12:34:28.306Z,33.97
2018-08-22T12:35:28.317Z,34.01
2018-08-22T12:36:28.332Z,33.92
2018-08-22T12:37:28.345Z,33.89
2018-08-22T12:38:28.362Z,33.53
2018-08-22T12:39:28.369Z,33.26
2018-08-22T12:40:28.390Z,33.37
2018-08-22T12:41:28.395Z,33.20
2018-08-22T12:42:28.410Z,33.15
2018-08-22T12:43:28.430Z,33.15
2018-08-22T12:44:28.461Z,33.13
2018-08-22T12:45:28.457Z,33.01
2018-08-22T12:46:28.474Z,32.98
2018-08-22T12:47:28.481Z,32.92
2018-08-22T12:48:28.496Z,32.80
2018-08-22T12:49:28.506Z,32.79
2018-08-22T12:50:28.542Z,32.86
2018-08-22T12:51:28.537Z,32.93
2018-08-22T12:52:28.547Z,32.96